createdAt,value
2022-11-26T00:01:18.619Z,14.97
2022-11-26T00:06:29.338Z,12.80
2022-11-26T00:11:21.601Z,15.43
2022-11-26T00:16:15.053Z,12.93
2022-11-26T00:21:21.837Z,12.10
2022-11-26T00:26:17.782Z,13.40
2022-11-26T00:31:15.685Z,16.90
2022-11-26T00:36:27.368Z,18.33
2022-11-26T00:41:22.773Z,15.87
2022-11-26T00:46:20.136Z,13.10
2022-11-26T00:51:18.754Z,12.23
2022-11-26T00:56:19.826Z,11.37
2022-11-26T01:01:23.414Z,11.43
2022-11-26T01:06:24.194Z,14.97
2022-11-26T01:11:19.341Z,16.47
2022-11-26T01:16:34.967Z,15.87
2022-11-26T01:21:30.102Z,13.27
2022-11-26T01:26:27.821Z,16.30
2022-11-26T01:31:23.094Z,19.20
2022-11-26T01:36:27.246Z,19.40
2022-11-26T01:41:31.690Z,12.83
2022-11-26T01:46:26.471Z,13.70
2022-11-26T01:51:30.255Z,20.37
2022-11-26T01:56:38.076Z,16.00
2022-11-26T02:07:22.991Z,14.23
2022-11-26T02:12:15.200Z,16.77
2022-11-26T02:17:30.460Z,17.67
2022-11-26T02:22:34.372Z,16.27
2022-11-26T02:27:55.086Z,14.13
2022-11-26T02:32:58.644Z,17.00
2022-11-26T02:38:05.430Z,17.63
2022-11-26T02:42:57.806Z,18.83
2022-11-26T02:47:54.152Z,16.53
2022-11-26T02:52:49.819Z,16.80
2022-11-26T02:57:47.369Z,15.17
2022-11-26T03:03:23.056Z,16.57
2022-11-26T03:08:16.210Z,16.00
2022-11-26T03:13:08.352Z,18.77
2022-11-26T03:18:00.608Z,16.87
2022-11-26T03:22:52.759Z,18.53
2022-11-26T03:27:44.981Z,18.77
2022-11-26T03:32:37.701Z,14.53
2022-11-26T03:37:29.958Z,18.83
2022-11-26T03:42:22.209Z,17.73
2022-11-26T03:47:14.374Z,13.37
2022-11-26T03:52:06.580Z,21.17
2022-11-26T03:56:58.739Z,12.90
2022-11-26T04:01:50.992Z,17.67
2022-11-26T04:06:43.168Z,17.53
2022-11-26T04:11:35.432Z,17.23
2022-11-26T04:16:27.708Z,18.63
2022-11-26T04:21:19.957Z,14.97
2022-11-26T04:26:12.267Z,20.13
2022-11-26T04:31:04.555Z,19.50
2022-11-26T04:35:56.716Z,19.53
2022-11-26T04:40:49.360Z,18.37
2022-11-26T04:45:41.634Z,18.03
2022-11-26T04:50:33.862Z,22.57
2022-11-26T04:55:26.052Z,20.30
2022-11-26T05:00:19.131Z,23.07
2022-11-26T05:05:12.068Z,25.33
2022-11-26T05:10:05.544Z,25.97
2022-11-26T05:14:59.957Z,29.33
2022-11-26T05:19:52.126Z,21.77
2022-11-26T05:24:44.368Z,26.17
2022-11-26T05:29:36.563Z,19.43
2022-11-26T05:34:28.713Z,20.43
2022-11-26T05:39:20.975Z,19.67
2022-11-26T05:44:13.168Z,21.07
2022-11-26T05:49:05.675Z,22.33
2022-11-26T05:53:57.918Z,23.87
2022-11-26T05:58:50.070Z,22.53
2022-11-26T06:03:42.453Z,22.77
2022-11-26T06:08:34.971Z,26.53
2022-11-26T06:13:27.098Z,23.17
2022-11-26T06:18:19.447Z,18.90
2022-11-26T06:23:11.836Z,20.70
2022-11-26T06:28:04.119Z,23.70
2022-11-26T06:32:56.323Z,23.27
2022-11-26T06:37:48.601Z,20.70
2022-11-26T06:42:40.741Z,22.87
2022-11-26T06:47:33.015Z,25.73
2022-11-26T06:52:25.321Z,32.57
2022-11-26T06:57:17.586Z,23.43
2022-11-26T07:02:10.666Z,22.70
2022-11-26T07:07:02.812Z,25.80
2022-11-26T07:11:54.985Z,24.50
2022-11-26T07:16:47.123Z,26.40
2022-11-26T07:21:39.286Z,28.73
2022-11-26T07:26:31.479Z,28.47
2022-11-26T07:31:24.037Z,28.97
2022-11-26T07:36:19.060Z,24.20
2022-11-26T07:41:13.665Z,21.63
2022-11-26T07:46:07.638Z,21.13
2022-11-26T07:51:00.759Z,20.93
2022-11-26T07:55:52.891Z,23.30
2022-11-26T08:00:45.069Z,24.20
2022-11-26T08:05:42.241Z,25.57
2022-11-26T08:10:34.414Z,22.87
2022-11-26T08:15:26.804Z,17.93
2022-11-26T08:20:19.071Z,19.57
2022-11-26T08:25:11.269Z,26.47
2022-11-26T08:30:04.161Z,25.73
2022-11-26T08:34:56.312Z,20.20
2022-11-26T08:39:48.497Z,18.40
2022-11-26T08:44:40.794Z,18.07
2022-11-26T08:49:33.747Z,23.27
2022-11-26T08:54:26.106Z,13.23
2022-11-26T08:59:22.474Z,18.30
2022-11-26T09:04:14.794Z,13.47
2022-11-26T09:09:14.403Z,16.57
2022-11-26T09:14:07.138Z,13.43
2022-11-26T09:19:03.575Z,12.40
2022-11-26T09:23:55.980Z,17.03
2022-11-26T09:28:49.371Z,11.40
2022-11-26T09:33:42.299Z,17.33
2022-11-26T09:38:35.584Z,15.97
2022-11-26T09:43:39.757Z,14.70
2022-11-26T09:48:33.993Z,12.70
2022-11-26T09:53:30.988Z,13.57
2022-11-26T09:59:01.822Z,14.87
2022-11-26T10:03:54.250Z,15.80
2022-11-26T10:09:20.199Z,10.37
2022-11-26T10:14:46.198Z,14.30
2022-11-26T10:19:59.958Z,13.90
2022-11-26T10:24:53.397Z,12.83
2022-11-26T10:29:56.757Z,12.07
2022-11-26T10:34:53.234Z,16.10
2022-11-26T10:39:45.462Z,14.37
2022-11-26T10:44:41.618Z,12.17
2022-11-26T10:49:33.978Z,13.17
2022-11-26T10:54:35.407Z,12.67
2022-11-26T10:59:31.374Z,9.87
2022-11-26T11:04:31.084Z,9.77
2022-11-26T11:09:31.344Z,12.77
2022-11-26T11:14:32.679Z,18.47
2022-11-26T11:19:26.665Z,11.27
2022-11-26T11:24:22.169Z,14.13
2022-11-26T11:29:32.554Z,12.37
2022-11-26T11:34:39.460Z,9.00
2022-11-26T11:39:34.861Z,13.23
2022-11-26T11:44:48.376Z,11.20
2022-11-26T11:50:11.836Z,10.80
2022-11-26T11:55:17.482Z,11.03
2022-11-26T12:00:17.329Z,10.13
2022-11-26T12:05:37.510Z,9.53
2022-11-26T12:11:05.145Z,11.17
2022-11-26T12:16:06.112Z,13.23
2022-11-26T12:21:15.072Z,12.77
2022-11-26T12:26:12.212Z,11.20
2022-11-26T12:31:31.740Z,9.43
2022-11-26T12:37:00.492Z,11.20
2022-11-26T12:41:58.363Z,12.17
2022-11-26T12:47:20.352Z,8.90
2022-11-26T12:52:18.685Z,9.03
2022-11-26T12:57:27.134Z,7.30
2022-11-26T13:02:26.314Z,10.80
2022-11-26T13:07:18.564Z,12.97
2022-11-26T13:12:38.877Z,10.07
2022-11-26T13:17:49.890Z,8.23
2022-11-26T13:23:18.536Z,9.83
2022-11-26T13:28:36.747Z,7.73
2022-11-26T13:33:49.874Z,11.90
2022-11-26T13:39:04.417Z,7.23
2022-11-26T13:44:02.512Z,13.17
2022-11-26T13:49:03.575Z,7.57
2022-11-26T13:54:05.225Z,10.10
2022-11-26T13:59:12.559Z,15.50
2022-11-26T14:04:10.158Z,10.53
2022-11-26T14:09:02.848Z,9.77
2022-11-26T14:14:25.748Z,11.30
2022-11-26T14:19:17.959Z,14.83
2022-11-26T14:24:10.107Z,12.47
2022-11-26T14:29:08.320Z,26.43
2022-11-26T14:34:16.038Z,13.23
2022-11-26T14:39:14.046Z,18.00
2022-11-26T14:44:07.810Z,10.67
2022-11-26T14:49:01.460Z,7.40
2022-11-26T14:53:55.504Z,11.83
2022-11-26T14:58:51.955Z,9.53
2022-11-26T15:03:58.033Z,10.27
2022-11-26T15:08:50.202Z,12.63
2022-11-26T15:13:46.411Z,12.80
2022-11-26T15:18:39.702Z,13.47
2022-11-26T15:23:36.434Z,24.67
2022-11-26T15:28:29.020Z,12.37
2022-11-26T15:33:21.759Z,14.20
2022-11-26T15:38:20.047Z,10.17
2022-11-26T15:43:24.156Z,10.63
2022-11-26T15:48:50.951Z,21.30
2022-11-26T15:53:48.090Z,10.93
2022-11-26T15:58:41.691Z,11.27
2022-11-26T16:03:45.416Z,16.37
2022-11-26T16:08:39.462Z,13.00
2022-11-26T16:13:33.140Z,14.30
2022-11-26T16:18:30.723Z,9.03
2022-11-26T16:23:29.574Z,9.10
2022-11-26T16:28:21.713Z,15.37
2022-11-26T16:33:13.974Z,20.10
2022-11-26T16:38:06.234Z,13.20
2022-11-26T16:42:58.428Z,17.93
2022-11-26T16:47:55.408Z,13.17
2022-11-26T16:52:48.263Z,16.93
2022-11-26T16:57:41.300Z,15.73
2022-11-26T17:02:33.738Z,16.93
2022-11-26T17:07:32.874Z,16.33
2022-11-26T17:12:26.097Z,21.93
2022-11-26T17:17:23.972Z,17.23
2022-11-26T17:22:17.694Z,14.30
2022-11-26T17:27:15.173Z,13.13
2022-11-26T17:32:11.756Z,13.13
2022-11-26T17:37:04.129Z,10.93
2022-11-26T17:41:56.438Z,13.60
2022-11-26T17:47:15.117Z,20.20
2022-11-26T17:52:01.668Z,23.80
2022-11-26T17:56:54.760Z,23.07
2022-11-26T18:01:47.136Z,16.60
2022-11-26T18:07:16.005Z,15.20
2022-11-26T18:12:14.750Z,13.23
2022-11-26T18:17:09.909Z,15.73
2022-11-26T18:22:02.441Z,15.63
2022-11-26T18:26:56.821Z,11.90
2022-11-26T18:31:49.010Z,8.93
2022-11-26T18:36:41.129Z,16.83
2022-11-26T18:41:34.086Z,11.43
2022-11-26T18:46:26.290Z,10.97
2022-11-26T18:51:18.892Z,18.30
2022-11-26T18:56:16.049Z,9.53
2022-11-26T19:01:29.424Z,14.80
2022-11-26T19:06:27.570Z,12.40
2022-11-26T19:11:22.250Z,10.90
2022-11-26T19:16:17.038Z,11.37
2022-11-26T19:21:18.727Z,10.80
2022-11-26T19:26:11.082Z,12.67
2022-11-26T19:31:09.082Z,13.67
2022-11-26T19:36:07.474Z,11.70
2022-11-26T19:41:00.933Z,12.20
2022-11-26T19:46:13.874Z,12.50
2022-11-26T19:51:07.625Z,11.53
2022-11-26T19:56:02.511Z,49.73
2022-11-26T20:00:54.951Z,18.67
2022-11-26T20:05:47.253Z,14.93
2022-11-26T20:10:39.609Z,12.40
2022-11-26T20:15:32.438Z,11.73
2022-11-26T20:20:24.693Z,11.77
2022-11-26T20:25:17.065Z,16.13
2022-11-26T20:30:10.356Z,11.80
2022-11-26T20:35:02.512Z,14.47
2022-11-26T20:39:54.635Z,14.63
2022-11-26T20:44:46.853Z,16.83
2022-11-26T20:49:42.857Z,11.87
2022-11-26T20:54:35.516Z,11.57
2022-11-26T20:59:27.806Z,12.20
2022-11-26T21:10:01.684Z,16.60
2022-11-26T21:14:53.929Z,16.30
2022-11-26T21:19:46.061Z,19.87
2022-11-26T21:24:39.433Z,22.90
2022-11-26T21:29:32.990Z,23.97
2022-11-26T21:34:25.323Z,21.33
2022-11-26T21:39:17.616Z,30.80
2022-11-26T21:44:09.611Z,21.00
2022-11-26T21:49:01.796Z,21.67
2022-11-26T21:53:54.609Z,13.97
2022-11-26T21:58:47.115Z,17.67
2022-11-26T22:03:41.172Z,21.17
2022-11-26T22:08:35.225Z,15.07
2022-11-26T22:13:27.157Z,17.20
2022-11-26T22:18:19.120Z,16.27
2022-11-26T22:23:11.045Z,20.80
2022-11-26T22:28:03.051Z,15.80
2022-11-26T22:32:55.007Z,28.97
2022-11-26T22:37:49.406Z,18.53
2022-11-26T22:42:41.467Z,14.80
2022-11-26T22:47:33.400Z,15.60
2022-11-26T22:52:25.365Z,21.13
2022-11-26T22:57:22.334Z,16.73
2022-11-26T23:02:17.958Z,15.33
2022-11-26T23:07:09.969Z,14.77
2022-11-26T23:12:02.004Z,17.70
2022-11-26T23:16:53.978Z,16.67
2022-11-26T23:21:47.114Z,20.07
2022-11-26T23:26:40.137Z,31.40
2022-11-26T23:31:37.640Z,55.13
2022-11-26T23:36:30.602Z,47.73
2022-11-26T23:41:23.127Z,36.73
2022-11-26T23:46:21.669Z,27.30
2022-11-26T23:51:18.294Z,21.60
2022-11-26T23:56:16.352Z,18.20
